APL Weather Summary—November 2001

                           
Monthly Observation Summary—November 2001
                           
Station "APLMD" (JHU/Applied Physics Laboratory), Laurel, MD (39°10'02"N, 76°53'52"W, 438 ft)
                           
                           
Day Max. Temp. Min. Temp. Rain Day Rain Month Rain Year Max. Rn Rate Peak Gust Max. Light Last Light Min. Press. Max. Press. Min. RH Max. RH
  (°F) (°F) (in.) (in.) (in.) (in./hr) (mph)     (in.) (in.) (%) (%)
                           
1 71 43 0.00 0.00 37.18 0.00 18 77 17:24 30.29 30.43 43 100
2 78 57 0.00 0.00 37.18 0.00 25 74 17:23 30.21 30.37 43 100
3 70 53 0.00 0.00 37.18 0.00 21 77 17:24 30.20 30.32 28 93
4 66 45 0.00 0.00 37.18 0.00 20 75 17:23 30.05 30.32 34 77
5 55 38 0.00 0.00 37.18 0.00 29 73 17:22 30.09 30.23 29 63
6 55 34 0.00 0.00 37.18 0.00 29 72 17:22 30.15 30.26 30 77
7 68 45 0.00 0.00 37.18 0.00 27 73 17:20 30.15 30.26 32 66
8 67 39 0.00 0.00 37.18 0.00 19 73 17:20 30.04 30.29 45 100
9 61 36 0.00 0.00 37.18 0.00 34 71 17:18 30.04 30.35 32 82
10 67 34 0.00 0.00 37.18 0.00 24 72 17:17 29.91 30.29 15 85
11 55 35 0.00 0.00 37.18 0.00 28 71 17:17 29.96 30.43 31 72
12 50 29 0.00 0.00 37.18 0.00 13 XX XX:XX 30.42 30.57 35 83
13 56 27 0.00 0.00 37.18 0.00 16 XX XX:XX 30.46 30.64 35 95
14 65 29 0.00 0.00 37.18 0.00 12 XX XX:XX 30.27 30.48 30 100
15 70 42 0.00 0.00 37.18 0.00 14 XX XX:XX 30.16 30.31 34 75
16 72 45 0.00 0.00 37.18 0.00 21 XX XX:XX 30.13 30.29 39 72
17 59 38 0.00 0.00 37.18 0.00 18 XX XX:XX 30.27 30.49 51 100
18 58 32 0.00 0.00 37.18 0.00 13 XX XX:XX 30.31 30.49 57 100
19 64 41 0.00 0.00 37.18 0.00 18 71 17:10 29.90 30.31 45 100
20 60 35 0.03 0.03 37.21 0.04 32 75 17:10 29.87 30.18 38 90
21 50 28 0.00 0.03 37.21 0.00 16 70 17:10 30.09 30.24 38 93
22 65 28 0.00 0.03 37.21 0.00 15 73 17:08 30.09 30.21 21 92
23 62 31 0.00 0.03 37.21 0.00 14 71 17:07 30.16 30.29 36 100
24 59 42 0.34 0.37 37.55 0.16 25 65 17:04 30.23 30.32 91 100
25 64 56 1.47 1.84 39.02 2.04 27 68 16:55 30.04 30.24 86 100
26 63 45 0.02 1.86 39.04 0.04 15 69 17:06 30.13 30.23 56 100
27 54 40 0.00 1.86 39.04 0.00 8 68 17:03 30.12 30.23 85 100
28 68 50 0.00 1.86 39.04 0.00 9 76 17:06 30.15 30.29 66 100
29 61 52 0.02 1.88 39.06 0.04 14 68 17:02 30.13 30.29 98 100
30 69 58 0.00 1.88 39.06 0.00 29 71 17:07 29.95 30.13 75 100
                           
Avg. 62.7 40.2                      
                           
Max. 78   1.47     2.04 34 77     30.64 98 100
Min.   27         8 65   29.87   15 63
                           
Note: The JHU/APL weather data on this page are for private and/or educational use only. Any commercial use of these data is strictly prohibited without express written consent of JHU/APL.